CLASSIFICA

TROFEO MADONNA DELLA FONTANA - CICLOAMATOUR

DIVISIONI:
MEDIOFONDO     CLASSIFICA:   ASSOLUTA    FCI    
CATEGORIE:   TUTTE    |   ELMT   |   JMT   |   M1   |   M2   |   M3   |   M4   |   M5   |   M6   |   M7   |   M8   |   W1   |   W2  
FILTRO:
  Atleta      Team        Pulisci       Atleti classificati MEDIOFONDO: 179  

Cliccare sulle colonne per cambiare ordinamento Pagina:   | 1 | | 2 | | 3 | | 4 |
Azioni Pos. M/F Cat. P.Cat. Pett Naz Atleta Squadra Tempo TEMPO MEDIA
11M31199CICCARESE STEFANOG.C. AIRONE LEO CONSTRUCTIONS02:10:39,474 02:10:39,474 39,13 Km/h -
22ELMT142CARDONE ANTONELLOASD CICLISPORT2000 FOCUS BIKE TEAM02:10:39,562 02:10:39,562 39,12 Km/h -
33M3268SPORTELLI DOMENICOASD CICLISPORT2000 FOCUS BIKE TEAM02:10:40,128 02:10:40,128 39,12 Km/h -
44M333ZIZZI PIEROGS PICONESE MELENDUGNO02:10:42,314 02:10:42,314 39,11 Km/h -
55M11431LUCARELLI BARTOLOMEOASD PEDALE ELETTRICO02:11:34,793 02:11:34,793 38,85 Km/h -
66M21361GENTILE ROMOLOA.S.D LEONESSA TAKLER- CEGLIE BIKE02:11:35,404 02:11:35,404 38,85 Km/h -
77ELMT221DE PASCALIS MATTIAA.S.D TEAM CALCAGNI SPORT02:11:36,356 02:11:36,356 38,84 Km/h -
88ELMT3497TRITTO ANDREAA.S.D LEONESSA TAKLER- CEGLIE BIKE02:11:55,135 02:11:55,135 38,75 Km/h -
99ELMT41GRECO CIROGS PICONESE MELENDUGNO02:13:52,125 02:13:52,125 38,19 Km/h -
1010ELMT5212DAMBROSIO ANTONIOG.S. I LOVE BIKE ALTAMIRA02:13:52,687 02:13:52,687 38,18 Km/h -
1111M2218CURCI DOMENICOALE CIPOLLINI02:13:53,117 02:13:53,117 38,18 Km/h -
1212M41242PATI ANTONIOMAGLIANO TEAM02:13:53,210 02:13:53,210 38,18 Km/h -
1313M2354MARTELLOTTA GIANDOMENICOASD CICLISPORT2000 FOCUS BIKE TEAM02:13:53,327 02:13:53,327 38,18 Km/h -
1414M242SERGI STEFANOMAGLIANO TEAM02:13:53,863 02:13:53,863 38,18 Km/h -
1515M34355ANGELINI ERNESTOA. NARDUCCI TEAM L. COFANO02:13:54,064 02:13:54,064 38,18 Km/h -
1616M35238CHIARELLI MARTINOTEAM SERECO NOCINBICI02:13:54,202 02:13:54,202 38,18 Km/h -
1717M42193GEUSA MASSIMOMAGLIANO TEAM02:13:54,319 02:13:54,319 38,18 Km/h -
1818ELMT6359CEGLIE ANTONIOA.S.D LEONESSA TAKLER- CEGLIE BIKE02:13:54,899 02:13:54,899 38,17 Km/h -
1919M43433PICARDI GIUSEPPEASD TEAM ORO VERDE02:13:55,220 02:13:55,220 38,17 Km/h -
2020M25109MASIELLO FABIOASD PEDALE ELETTRICO02:13:55,341 02:13:55,341 38,17 Km/h -
2121M44207QUARANTA AMBROGIOG.C. AIRONE LEO CONSTRUCTIONS02:13:55,619 02:13:55,619 38,17 Km/h -
2222M26350BUONFRATE LUIGICHIALA CYCLING TEAM02:13:55,939 02:13:55,939 38,17 Km/h -
2323ELMT7200CURTO FRANCESCOG.C. AIRONE LEO CONSTRUCTIONS02:13:56,501 02:13:56,501 38,17 Km/h -
2424M27434MANCO FRANCESCOMAGLIANO TEAM02:13:56,959 02:13:56,959 38,16 Km/h -
2525M6133MUSCI FRANCESCOROMANELLI BIKE CAPURSO02:13:57,012 02:13:57,012 38,16 Km/h -
2626M36186LATARTARA GIUSEPPE ANGELOSPES ALBEROBELLO02:13:57,376 02:13:57,376 38,16 Km/h -
2727M51160BOTTACCI VITOASD CARBINIA BIKE CAROVIGNO02:13:58,591 02:13:58,591 38,16 Km/h -
2828M28319GIANNUZZI ANTONIOASD EURONIX02:13:58,783 02:13:58,783 38,16 Km/h -
2929ELMT8137PARISI ALESSIOE.F. BICICLUB FRANCAVILLA FONTANA02:13:58,842 02:13:58,842 38,15 Km/h -
3030M2927SANTORO VITANTONIO DAVIDECICLISPORT 2000 FOCUS BIKES TEAM02:13:59,568 02:13:59,568 38,15 Km/h -
3131ELMT9246BADIALI DAVIDEASD LA MANDRA02:14:02,047 02:14:02,047 38,14 Km/h -
3232M4560PALMISANO VITOASD CICLISPORT2000 FOCUS BIKE TEAM02:14:02,675 02:14:02,675 38,14 Km/h -
3333M46441LADDOMADA MICHELEBIKEMANIA ASD02:14:02,912 02:14:02,912 38,14 Km/h -
3434M3726PERRONE GIUSEPPEA.S.D TEAM CALCAGNI SPORT02:14:02,992 02:14:02,992 38,14 Km/h -
3535M38170INCALZA ORONZOTEAM AMICI DI SIMONE02:14:03,156 02:14:03,156 38,13 Km/h -
3636M39463FAVIA GIUSEPPEF.LLI LOSACCO MAGALETTI02:14:04,110 02:14:04,110 38,13 Km/h -
3737M210313GRANALDI ALESSANDROCHIALA CYCLING TEAM02:14:04,149 02:14:04,149 38,13 Km/h -
3838M12499NOVIELLO DARIOF.LLI LOSACCO MAGALETTI BIKE02:14:04,195 02:14:04,195 38,13 Km/h -
3939ELMT10360DIRENZO NICOLAA.S.D LEONESSA TAKLER- CEGLIE BIKE02:14:04,347 02:14:04,347 38,13 Km/h -
4040M21198CARDONE FRANCESCOASD CICLISPORT2000 FOCUS BIKE TEAM02:14:05,131 02:14:05,131 38,12 Km/h -
4141ELMT11428LAROSSA MARCOASD HELLO BIKE SHOP TRANI02:14:09,160 02:14:09,160 38,11 Km/h -
4242M21251CALIANDRO ALESSANDROASD CICLISPORT2000 FOCUS BIKE TEAM02:14:21,498 02:14:21,498 38,05 Km/h -
4343ELMT1213ABBRACCIAVENTO FRANCESCOCHIALA CYCLING TEAM02:14:37,840 02:14:37,840 37,97 Km/h -
4444M13331PISTOIA ANTONELLOCHIALA CYCLING TEAM02:14:43,951 02:14:43,951 37,94 Km/h -
4545M62427GIORGIO BARTOLOMEOASD F.LLI LOSACCO MAGALETTI BIKE02:14:44,574 02:14:44,574 37,94 Km/h -
4646M310254LATESORIERE FRANCESCOSPES ALBEROBELLO02:14:47,153 02:14:47,153 37,93 Km/h -
4747M52155CARPARELLI DOMENICOASD NRG BIKE02:15:08,855 02:15:08,855 37,83 Km/h -
4848M53267PALMISANO BIAGIOA. NARDUCCI TEAM L. COFANO02:15:09,060 02:15:09,060 37,82 Km/h -
4949M47317TINELLA GIOVANNIGSC CERAMICHE & MASSERIE02:15:11,538 02:15:11,538 37,81 Km/h -
5050M4865ROMANELLI MARTINOASD CICLISPORT2000 FOCUS BIKE TEAM02:15:13,658 02:15:13,658 37,80 Km/h -
5151M311368CARLONE MICHELEA.S.D. IL VELOCIPEDE BARI02:15:16,044 02:15:16,044 37,79 Km/h -
5252ELMT1322ANDRIULO COSIMOTEAM FUORISOGLIA02:15:55,849 02:15:55,849 37,61 Km/h -
5353M54293IACONISI MAURIZIOTEAM RACING IACONISI02:15:58,107 02:15:58,107 37,60 Km/h -
5454M14222PUGLIESE NICOLATEAM EUROBIKE02:15:58,285 02:15:58,285 37,60 Km/h -
5555M55442LOIZZO MARIOBIKEMANIA ASD02:16:00,580 02:16:00,580 37,59 Km/h -
5656M71283D'AVERSA ANTONIOASD CARBINIA BIKE CAROVIGNO02:16:03,743 02:16:03,743 37,57 Km/h -
5757M213332PUGLIESE GIANCARLOCHIALA CYCLING TEAM02:16:06,049 02:16:06,049 37,56 Km/h -
5858M15130SCIELZI FABRIZIOASD TARANTO SPORTIVA02:16:59,752 02:16:59,752 37,31 Km/h -
5959M5661PINTO ANTONIOASD CICLISPORT2000 FOCUS BIKE TEAM02:18:45,334 02:18:45,334 36,84 Km/h -
6060M21464ROLLI STEFANOASD CICLISPORT2000 FOCUS BIKE TEAM02:19:08,374 02:19:08,374 36,74 Km/h -
6161M49218CARRER LUIGITEAM EUROBIKE02:19:48,258 02:19:48,258 36,57 Km/h -
6262M312471VALENTE SALVATOREASD CARBINIA BIKE CAROVIGNO02:19:53,132 02:19:53,132 36,54 Km/h -
6363M16180ALBA YURICICLISTICA VERNOLESE02:19:53,451 02:19:53,451 36,54 Km/h -
6464M31323VALLETTI LUCAA.S.D. AMATORI PUTIGNANO02:19:53,494 02:19:53,494 36,54 Km/h -
6565M314250GARGARO FABRIZIOPOLISPORT CICLO CLUB FASANO02:19:53,953 02:19:53,953 36,54 Km/h -
6666M21520AVANTAGGIATO CESARIO COSIMOA.S.D TEAM CALCAGNI SPORT02:19:53,985 02:19:53,985 36,54 Km/h -
6767M410240LUCCHETTI MASSIMOMAGLIANO TEAM02:19:54,370 02:19:54,370 36,54 Km/h -
6868ELMT1462PUGLIESE SANTEASD CICLISPORT2000 FOCUS BIKE TEAM02:19:54,785 02:19:54,785 36,54 Km/h -
6969M216201CASALINO GIANLUCATEAM MAGHERNO BIKE02:19:54,968 02:19:54,968 36,54 Km/h -
7070M63194SILVESTRI FABIOCICLISTICA VERNOLESE02:19:55,134 02:19:55,134 36,54 Km/h -
7171ELMT1537NESTA VITOA.S.D. QUARATBIKE02:19:56,834 02:19:56,834 36,53 Km/h -
7272M411337LABARILE RAFFAELEGRUPPO CICLISTICO SANTERMANO02:19:57,062 02:19:57,062 36,53 Km/h -
7373M72340SOLDATO ALFONSOROMANELLI BIKE CAPURSO02:19:57,232 02:19:57,232 36,53 Km/h -
7474M21711SOLETI NICOLACHIALA CYCLING TEAM02:19:57,305 02:19:57,305 36,53 Km/h -
7575M315287LOLLI NICOLAA.S.D. SALIS BIKE02:19:57,486 02:19:57,486 36,53 Km/h -
7676M316172LIPPI CRISTIANTEAM AMICI DI SIMONE02:19:57,695 02:19:57,695 36,52 Km/h -
7777M31785MATICHECCHIA GEREMIAASD CICLISPORT2000 FOCUS BIKE TEAM02:19:57,783 02:19:57,783 36,52 Km/h -
7878ELMT16178CORVINO ALESSANDROTEAM FUORISOGLIA02:19:58,029 02:19:58,029 36,52 Km/h -
7979M17439DICURSI SERGIOPRO LOCO AVETRANA02:19:58,060 02:19:58,060 36,52 Km/h -
8080M64429ELETTRICO ROCCOASD PEDALE ELETTRICO02:19:58,205 02:19:58,205 36,52 Km/h -
8181M57124MESSINA ANTONIOASD ROSARNO CYCLING02:19:58,547 02:19:58,547 36,52 Km/h -
8282M218107TRISOLINO MASSIMOASD MTB CITTĄ DEGLI IMPERIALI02:19:58,575 02:19:58,575 36,52 Km/h -
8383M18166MASTRONARDI VITO SANTESPES ALBEROBELLO02:19:58,784 02:19:58,784 36,52 Km/h -
8484M58458RAMUNNI MICHELESPES ALBEROBELLO02:19:58,946 02:19:58,946 36,52 Km/h -
8585M412301MINERVINI CORRADOVELOCLUB MOLFETTA02:19:58,949 02:19:58,949 36,52 Km/h -
8686M59371PIZZOLANTE ANTONIOA.S.D. TEAM AURISPA & C02:19:58,978 02:19:58,978 36,52 Km/h -
8787ELMT17134PENTA DANIELEBIKEMANIA ASD02:19:59,088 02:19:59,088 36,52 Km/h -
8888M21938MARUCCIO GIANLUCABICI CLUB OSTUNI02:19:59,194 02:19:59,194 36,52 Km/h -
8989JMT1214LAVACCA LUCAU.P.J. TARANTO02:19:59,280 02:19:59,280 36,52 Km/h -
9090JMT2370MININNO GIUSEPPEA.S.D. QUARATBIKE02:19:59,543 02:19:59,543 36,52 Km/h -
9191M510164LANZILOTTI VITTORIOASD CARBINIA BIKE CAROVIGNO02:19:59,891 02:19:59,891 36,51 Km/h -
9292M19322MASTRONARDI GIUSEPPEPOLICORO BIKE02:20:00,726 02:20:00,726 36,51 Km/h -
9393M51130CARBOTTI MARTINOGSC CERAMICHE & MASSERIE02:20:01,351 02:20:01,351 36,51 Km/h -
9494ELMT18323MASTRONARDI DAVIDEPOLICORO BIKE02:20:01,356 02:20:01,356 36,51 Km/h -
9595M22070TRANI DOMENICOASD CICLISPORT2000 FOCUS BIKE TEAM02:20:01,543 02:20:01,543 36,51 Km/h -
9696ELMT19450SANTORO ANGELOBIKEMANIA ASD02:20:01,566 02:20:01,566 36,51 Km/h -
9797M110173ANDRIULO GERARDOTEAM FUORISOGLIA02:20:01,693 02:20:01,693 36,51 Km/h -
9898M41390SEMERARO COSIMOASD CICLISPORT2000 FOCUS BIKE TEAM02:20:01,990 02:20:01,990 36,51 Km/h -
9999M512149SEMERARO GIOVANNIGSC CERAMICHE & MASSERIE02:20:02,060 02:20:02,060 36,51 Km/h -
100100M318183MICCOLI MASSIMOTEAM FUORISOGLIA02:20:02,488 02:20:02,488 36,50 Km/h -
101101M111363LORUSSO ANDREAA.S.D LEONESSA TAKLER- CEGLIE BIKE02:20:02,538 02:20:02,538 36,50 Km/h -
102102M81168LOPINTO DONATOA. S.D. SPORTOGETHER NOCI02:20:02,741 02:20:02,741 36,50 Km/h -
103103M41469DE NAPOLI RAFFAELEASD BELVEDERE02:20:02,847 02:20:02,847 36,50 Km/h -
104104M513468MAGGIORE ANGELOASD CARBINIA BIKE CAROVIGNO02:20:04,121 02:20:04,121 36,50 Km/h -
105105M221146CRETI LUCAGS PICONESE MELENDUGNO02:20:04,238 02:20:04,238 36,50 Km/h -
106106M222249RUBINO TOMMASOPOLISPORT CICLO CLUB FASANO02:20:06,130 02:20:06,130 36,49 Km/h -
107107M2238ABBRACCIAVENTO GIUSEPPEGS PICONESE MELENDUGNO02:20:26,518 02:20:26,518 36,40 Km/h -
108108M415329MANIGRASSO ANTONIOBIKEMANIA ASD02:20:26,520 02:20:26,520 36,40 Km/h -
109109M22483CALIANDRO MARCELLOASD CICLISPORT2000 FOCUS BIKE TEAM02:20:37,680 02:20:37,680 36,35 Km/h -
110110M319330PINTO MICHELEBIKEMANIA ASD02:24:00,695 02:24:00,695 35,50 Km/h -
111111M514451DE TULLIO GIOVANNIF.LLI LOSACCO MAGALETTI BIKE 200002:24:42,393 02:24:42,393 35,33 Km/h -
112112M515348FERILLI MASSIMOGCD CAPOLEUCA02:24:42,938 02:24:42,938 35,32 Km/h -
113113M416379VASSALLO GIUSEPPEGSC CERAMICHE & MASSERIE02:24:43,337 02:24:43,337 35,32 Km/h -
114114M225377PEPE NICOLAASD ATLETICO RUTIGLIANO02:24:43,441 02:24:43,441 35,32 Km/h -
115115ELMT20140BARLETTA ALESSANDROGRUPPO SPORTIVO ESERCITO02:24:47,394 02:24:47,394 35,31 Km/h -
116116M516498RAHO EDOARDOASD CICLISMO MASSAFRA02:24:52,640 02:24:52,640 35,29 Km/h -
117117M226113DI MAURO ALFREDOBIKEMANIA ASD02:26:31,306 02:26:31,306 34,89 Km/h -
118118M65373SPINELLI MAURIZIO GIUSEPPEALE' CIPOLLINI02:28:28,329 02:28:28,329 34,43 Km/h -
119119M1129SUSCA ROBERTONRG BIKE02:28:35,347 02:28:35,347 34,40 Km/h -
120120M41757MUSCA ANTONIOASD AMICI TE LU GARDEN02:28:35,750 02:28:35,750 34,40 Km/h -
121121JMT363PUGLIESE DANIELEASD ATLETICA CASTELLANA FREEDOGS02:28:36,518 02:28:36,518 34,40 Km/h -
122122M66217SIMONE LUIGIU.P.J.TARANTO02:28:38,064 02:28:38,064 34,39 Km/h -
123123M51753BIRTOLO COSIMO ANTONIOMARANGIOLO TARANTO02:28:38,831 02:28:38,831 34,39 Km/h -
124124JMT4216CALABRESE DAVIDEU.P.J.TARANTO02:28:39,191 02:28:39,191 34,39 Km/h -
125125M518462ZIZZARI GIUSEPPEF.LLI LOSACCO MAGALETTI02:28:39,664 02:28:39,664 34,39 Km/h -
126126M51967SOLIDA SALVATOREASD CICLISPORT2000 FOCUS BIKE TEAM02:28:39,882 02:28:39,882 34,39 Km/h -
127127M6729BIASI PIETROA.S.D. AMATORI PUTIGNANO02:28:40,165 02:28:40,165 34,39 Km/h -
128128M320444MASCIA GIOVANNIBIKEMANIA ASD02:28:40,464 02:28:40,464 34,38 Km/h -
129129M520356CAPOZZO GIACOMOA.S.D LEONESSA TAKLER- CEGLIE BIKE02:28:40,598 02:28:40,598 34,38 Km/h -
130130M418248ALBANO GIOVANNIGS PICONESE MELENDUGNO02:28:40,616 02:28:40,616 34,38 Km/h -
131131M82185MICCOLI VITOTEAM FUORISOGLIA02:28:40,922 02:28:40,922 34,38 Km/h -
132132M73142CARROZZO GREGORIOBICICLUBOSTUNI02:28:44,029 02:28:44,029 34,37 Km/h -
133133M8358DE GIRARDIS MODESTOASD ATLETICA CASTELLANA FREEDOGS02:28:44,184 02:28:44,184 34,37 Km/h -
134134M419126MARINOSCI FELICEASD TARANTO SPORTIVA02:28:44,957 02:28:44,957 34,37 Km/h -
135135M68165LANZILOTTI ANGELOASD CARBINIA BIKE CAROVIGNO02:28:45,135 02:28:45,135 34,37 Km/h -
136136M521500CALO' ORONZOASD CARBINIA BIKE CAROVIGNO02:28:45,288 02:28:45,288 34,37 Km/h -
137137M22736PALAZZO VITOA.S.D. AMATORI PUTIGNANO02:28:45,614 02:28:45,614 34,36 Km/h -
138138M6935MELE VITOA.S.D. AMATORI PUTIGNANO02:28:45,872 02:28:45,872 34,36 Km/h -
139139M113127MELE ALESSIOASD TARANTO SPORTIVA02:28:46,376 02:28:46,376 34,36 Km/h -
140140M114235BRUNO VITOMAGALETTI02:28:46,995 02:28:46,995 34,36 Km/h -
141141JMT5229DIVELLA DAMIANOSANTERMANO02:28:50,177 02:28:50,177 34,35 Km/h -
1421W11232PIERRI FLAVIACHIALA CYCLING TEAM02:28:52,063 02:28:52,063 34,34 Km/h -
143142ELMT2147MAGGIO ALESSIOALESSIO MAGGIO02:29:26,091 02:29:26,091 34,21 Km/h -
144143M420133SERGIO GIANLUCAASD TARANTO SPORTIVA02:29:27,405 02:29:27,405 34,20 Km/h -
145144M421343REALE NICOLAHA.I.LOVE BIKE ALTAMURA02:29:44,805 02:29:44,805 34,14 Km/h -
146145M32117GENTILE VITOA. S.D. SPORTOGETHER NOCI02:29:52,670 02:29:52,670 34,11 Km/h -
147146M522320STURDA' GIANCARLOA.S.D TEAM CALCAGNI SPORT02:29:52,878 02:29:52,878 34,11 Km/h -
148147M322321MITA ANTONIOBIKEMANIA ASD02:29:57,196 02:29:57,196 34,09 Km/h -
149148M422179MAGRI COSIMOTEAM FUORISOGLIA02:30:34,307 02:30:34,307 33,95 Km/h -
150149ELMT22244CHIALA GIUSEPPECHIALA CYCLING TEAM02:30:37,262 02:30:37,262 33,94 Km/h -
151150ELMT23440AGGIUS VELLA ROSARIOBIKEMANIA ASD02:30:47,901 02:30:47,901 33,90 Km/h -
152151M115253VERGARI ALESSANDROACLI SAN PANCRAZIO SALENTINO ASD02:31:11,557 02:31:11,557 33,81 Km/h -
153152M32352LIUZZI CIROASD CICLISPORT2000 FOCUS BIKE TEAM02:31:35,128 02:31:35,128 33,72 Km/h -
154153M423369MAGGIORE ANTONIOA.S.D. MESAGNE ON BIKE02:31:59,971 02:31:59,971 33,63 Km/h -
155154M84347MONTESANTI FOSCOCAPO LEUCA02:33:53,655 02:33:53,655 33,22 Km/h -
156155ELMT2481SCHIENA ANGELOASD CARBINIA BIKE CAROVIGNO02:34:18,713 02:34:18,713 33,13 Km/h -
1572W21452COLASUONNO ROSAGASPARRE CICLI LIBERI E FORTI02:34:19,755 02:34:19,755 33,12 Km/h -
158156M523438TAMBURINI MARCELLOASD US ACLI FAUSTO COPPI02:34:20,627 02:34:20,627 33,12 Km/h -
159157M324284NAVEDORO GIUSEPPEGASPARRE CICLI LIBERI E FORTI02:34:21,657 02:34:21,657 33,12 Km/h -
1603W22430SCAFA ROBERTAGS PICONESE MELENDUGNO02:34:23,331 02:34:23,331 33,11 Km/h -
161158M524245D'ARCANGELO PAOLO GERARDOCHIALA CYCLING TEAM02:34:24,758 02:34:24,758 33,11 Km/h -
162159M325174CARBONE GIROLAMOTEAM FUORISOGLIA02:34:26,960 02:34:26,960 33,10 Km/h -
163160M11675MARRAFFA ALESSANDROASD CARBINIA BIKE CAROVIGNO02:34:54,145 02:34:54,145 33,00 Km/h -
164161M22893PADULA ALESSANDROASD MTB CITTA DEGLI IMPERIALI02:35:41,348 02:35:41,348 32,83 Km/h -
165162M525162RIZZO PIETROMESAGNE ON BIKE02:40:08,480 02:40:08,480 31,92 Km/h -
166163M8515CARPARELLI PASQUALECHIALA CYCLING TEAM02:40:34,517 02:40:34,517 31,84 Km/h -
167164M74342LAPORTA FRANCESCOA.S.D. AMATORI PUTIGNANO02:40:37,105 02:40:37,105 31,83 Km/h -
168165M326457DE BELLIS NICOLASPES ALBEROBELLO02:40:58,329 02:40:58,329 31,76 Km/h -
1694W23455LASSANDRO MARIAGRUPPO CICLISTICO SANTERMANO02:41:08,938 02:41:08,938 31,72 Km/h -
170166M229470SBANO MAURIZIOASD CARBINIA BIKE CAROVIGNO02:41:12,886 02:41:12,886 31,71 Km/h -
171167M610456CARRIERO LUIGIGS PICONESE MELENDUGNO02:41:22,762 02:41:22,762 31,68 Km/h -
172168M23099CINIERI COSIMO MIMMOASD MTB CITTĄ DEGLI IMPERIALI02:49:21,329 02:49:21,329 30,19 Km/h -
1735W12177CHIRICO MARIATEAM FUORISOGLIA02:49:22,480 02:49:22,480 30,18 Km/h -
174169M327251MAIURI GIUSEPPEU.P.J. TARANTO02:50:36,543 02:50:36,543 29,96 Km/h -
1756W13234CARBOTTI AURELIACHIALA CYCLING TEAM02:51:55,108 02:51:55,108 29,74 Km/h -
176170M23187PIETROFORTE SIMONEASD LABICICLETTASTORE.IT02:52:36,753 02:52:36,753 29,62 Km/h -
177171M424163DEL VECCHIO ANTONIOSPES ALBEROBELLO02:52:36,979 02:52:36,979 29,61 Km/h -
178172M117375LUPARELLI FABIOASD 2 RUOTE MOLA DI BARI02:59:01,553 02:59:01,553 28,55 Km/h -
179173M611241L'ABATE ANTONIO GENNAROCHIALA CYCLING TEAM02:59:01,555 02:59:01,555 28,55 Km/h -
Righe per pagina::     TUTTE    |   30   |   50   |   100   Pagina:   | 1 | | 2 | | 3 | | 4 |